sensor_id;sensor_type;location;lat;lon;timestamp;P1;durP1;ratioP1;P2;durP2;ratioP2
11338;SDS011;5724;42.684;23.252;2024-02-23T00:00:27;9.80;;;8.80;;
11338;SDS011;5724;42.684;23.252;2024-02-23T00:02:53;9.43;;;8.37;;
11338;SDS011;5724;42.684;23.252;2024-02-23T00:05:23;9.17;;;8.30;;
11338;SDS011;5724;42.684;23.252;2024-02-23T00:07:49;10.60;;;8.30;;
11338;SDS011;5724;42.684;23.252;2024-02-23T00:10:14;9.07;;;8.13;;
11338;SDS011;5724;42.684;23.252;2024-02-23T00:12:40;8.80;;;7.97;;
11338;SDS011;5724;42.684;23.252;2024-02-23T00:15:06;8.97;;;8.17;;
11338;SDS011;5724;42.684;23.252;2024-02-23T00:17:32;8.10;;;7.40;;
11338;SDS011;5724;42.684;23.252;2024-02-23T00:19:58;8.33;;;7.80;;
11338;SDS011;5724;42.684;23.252;2024-02-23T00:22:23;10.10;;;7.97;;
11338;SDS011;5724;42.684;23.252;2024-02-23T00:24:50;7.97;;;7.37;;
11338;SDS011;5724;42.684;23.252;2024-02-23T00:27:16;9.00;;;8.10;;
11338;SDS011;5724;42.684;23.252;2024-02-23T00:29:42;8.53;;;7.83;;
11338;SDS011;5724;42.684;23.252;2024-02-23T00:32:07;8.17;;;7.57;;
11338;SDS011;5724;42.684;23.252;2024-02-23T00:34:33;8.57;;;7.77;;
11338;SDS011;5724;42.684;23.252;2024-02-23T00:36:59;8.17;;;7.57;;
11338;SDS011;5724;42.684;23.252;2024-02-23T00:39:24;8.30;;;7.70;;
11338;SDS011;5724;42.684;23.252;2024-02-23T00:41:50;8.57;;;7.87;;
11338;SDS011;5724;42.684;23.252;2024-02-23T00:44:15;7.83;;;7.23;;
11338;SDS011;5724;42.684;23.252;2024-02-23T00:46:41;8.53;;;7.83;;
11338;SDS011;5724;42.684;23.252;2024-02-23T00:49:06;8.23;;;7.63;;
11338;SDS011;5724;42.684;23.252;2024-02-23T00:51:32;11.43;;;8.60;;
11338;SDS011;5724;42.684;23.252;2024-02-23T00:53:57;9.67;;;8.87;;
11338;SDS011;5724;42.684;23.252;2024-02-23T00:56:23;10.03;;;9.13;;
11338;SDS011;5724;42.684;23.252;2024-02-23T00:58:49;10.10;;;9.27;;
11338;SDS011;5724;42.684;23.252;2024-02-23T01:01:14;10.00;;;9.20;;
11338;SDS011;5724;42.684;23.252;2024-02-23T01:03:40;10.17;;;9.23;;
11338;SDS011;5724;42.684;23.252;2024-02-23T01:06:05;11.20;;;9.93;;
11338;SDS011;5724;42.684;23.252;2024-02-23T01:08:31;10.37;;;9.40;;
11338;SDS011;5724;42.684;23.252;2024-02-23T01:10:56;7.47;;;6.87;;
11338;SDS011;5724;42.684;23.252;2024-02-23T01:13:22;9.53;;;8.37;;
11338;SDS011;5724;42.684;23.252;2024-02-23T01:15:47;9.07;;;8.37;;
11338;SDS011;5724;42.684;23.252;2024-02-23T01:18:13;8.13;;;7.53;;
11338;SDS011;5724;42.684;23.252;2024-02-23T01:20:39;9.30;;;8.40;;
11338;SDS011;5724;42.684;23.252;2024-02-23T01:23:04;12.60;;;9.70;;
11338;SDS011;5724;42.684;23.252;2024-02-23T01:25:30;8.73;;;7.40;;
11338;SDS011;5724;42.684;23.252;2024-02-23T01:27:55;10.70;;;9.80;;
11338;SDS011;5724;42.684;23.252;2024-02-23T01:30:21;10.73;;;9.83;;
11338;SDS011;5724;42.684;23.252;2024-02-23T01:32:46;10.97;;;10.00;;
11338;SDS011;5724;42.684;23.252;2024-02-23T01:35:13;13.00;;;11.57;;
11338;SDS011;5724;42.684;23.252;2024-02-23T01:37:39;13.43;;;12.13;;
11338;SDS011;5724;42.684;23.252;2024-02-23T01:40:05;12.83;;;11.70;;
11338;SDS011;5724;42.684;23.252;2024-02-23T01:42:31;15.00;;;13.07;;
11338;SDS011;5724;42.684;23.252;2024-02-23T01:44:56;14.03;;;12.23;;
11338;SDS011;5724;42.684;23.252;2024-02-23T01:47:22;12.30;;;11.10;;
11338;SDS011;5724;42.684;23.252;2024-02-23T01:49:49;13.70;;;10.53;;
11338;SDS011;5724;42.684;23.252;2024-02-23T01:52:15;11.40;;;10.40;;
11338;SDS011;5724;42.684;23.252;2024-02-23T01:54:42;12.20;;;11.13;;
11338;SDS011;5724;42.684;23.252;2024-02-23T01:57:09;11.70;;;10.60;;
11338;SDS011;5724;42.684;23.252;2024-02-23T01:59:38;12.97;;;11.77;;
11338;SDS011;5724;42.684;23.252;2024-02-23T02:02:04;12.37;;;11.13;;
11338;SDS011;5724;42.684;23.252;2024-02-23T02:04:30;10.73;;;9.63;;
11338;SDS011;5724;42.684;23.252;2024-02-23T02:06:56;10.63;;;9.73;;
11338;SDS011;5724;42.684;23.252;2024-02-23T02:09:24;10.43;;;9.63;;
11338;SDS011;5724;42.684;23.252;2024-02-23T02:11:50;10.17;;;9.37;;
11338;SDS011;5724;42.684;23.252;2024-02-23T02:14:16;9.53;;;8.83;;
11338;SDS011;5724;42.684;23.252;2024-02-23T02:16:42;9.37;;;8.70;;
11338;SDS011;5724;42.684;23.252;2024-02-23T02:19:09;10.10;;;9.20;;
11338;SDS011;5724;42.684;23.252;2024-02-23T02:21:35;10.10;;;9.07;;
11338;SDS011;5724;42.684;23.252;2024-02-23T02:24:02;8.53;;;7.73;;
11338;SDS011;5724;42.684;23.252;2024-02-23T02:26:29;9.10;;;8.30;;
11338;SDS011;5724;42.684;23.252;2024-02-23T02:28:55;10.00;;;9.20;;
11338;SDS011;5724;42.684;23.252;2024-02-23T02:31:20;9.60;;;8.77;;
11338;SDS011;5724;42.684;23.252;2024-02-23T02:33:46;10.33;;;9.43;;
11338;SDS011;5724;42.684;23.252;2024-02-23T02:36:11;11.97;;;9.60;;
11338;SDS011;5724;42.684;23.252;2024-02-23T02:38:37;10.70;;;9.80;;
11338;SDS011;5724;42.684;23.252;2024-02-23T02:41:03;10.00;;;9.13;;
11338;SDS011;5724;42.684;23.252;2024-02-23T02:43:30;10.87;;;9.77;;
11338;SDS011;5724;42.684;23.252;2024-02-23T02:45:56;9.70;;;9.00;;
11338;SDS011;5724;42.684;23.252;2024-02-23T02:48:22;10.10;;;9.20;;
11338;SDS011;5724;42.684;23.252;2024-02-23T02:50:48;10.27;;;9.47;;
11338;SDS011;5724;42.684;23.252;2024-02-23T02:53:15;10.70;;;9.80;;
11338;SDS011;5724;42.684;23.252;2024-02-23T02:55:43;10.90;;;9.90;;
11338;SDS011;5724;42.684;23.252;2024-02-23T02:58:11;9.43;;;8.63;;
11338;SDS011;5724;42.684;23.252;2024-02-23T03:00:37;9.87;;;9.17;;
11338;SDS011;5724;42.684;23.252;2024-02-23T03:03:03;9.77;;;8.97;;
11338;SDS011;5724;42.684;23.252;2024-02-23T03:05:28;9.40;;;8.67;;
11338;SDS011;5724;42.684;23.252;2024-02-23T03:07:54;10.37;;;9.47;;
11338;SDS011;5724;42.684;23.252;2024-02-23T03:10:19;9.87;;;9.07;;
11338;SDS011;5724;42.684;23.252;2024-02-23T03:12:45;9.43;;;8.70;;
11338;SDS011;5724;42.684;23.252;2024-02-23T03:15:10;9.93;;;9.17;;
11338;SDS011;5724;42.684;23.252;2024-02-23T03:17:36;9.97;;;9.17;;
11338;SDS011;5724;42.684;23.252;2024-02-23T03:20:02;9.57;;;8.87;;
11338;SDS011;5724;42.684;23.252;2024-02-23T03:22:30;9.73;;;8.87;;
11338;SDS011;5724;42.684;23.252;2024-02-23T03:24:56;9.57;;;8.87;;
11338;SDS011;5724;42.684;23.252;2024-02-23T03:27:27;10.17;;;9.27;;
11338;SDS011;5724;42.684;23.252;2024-02-23T03:29:54;8.63;;;8.03;;
11338;SDS011;5724;42.684;23.252;2024-02-23T03:32:19;8.90;;;8.23;;
11338;SDS011;5724;42.684;23.252;2024-02-23T03:34:45;9.57;;;8.77;;
11338;SDS011;5724;42.684;23.252;2024-02-23T03:37:10;10.10;;;9.20;;
11338;SDS011;5724;42.684;23.252;2024-02-23T03:39:36;9.47;;;8.67;;
11338;SDS011;5724;42.684;23.252;2024-02-23T03:42:03;11.03;;;9.93;;
11338;SDS011;5724;42.684;23.252;2024-02-23T03:44:29;10.17;;;9.10;;
11338;SDS011;5724;42.684;23.252;2024-02-23T03:46:54;9.60;;;8.80;;
11338;SDS011;5724;42.684;23.252;2024-02-23T03:49:20;10.33;;;9.43;;
11338;SDS011;5724;42.684;23.252;2024-02-23T03:51:45;10.63;;;9.53;;
11338;SDS011;5724;42.684;23.252;2024-02-23T03:54:11;10.03;;;9.13;;
11338;SDS011;5724;42.684;23.252;2024-02-23T03:56:56;9.97;;;9.07;;
11338;SDS011;5724;42.684;23.252;2024-02-23T03:59:22;9.57;;;8.77;;
11338;SDS011;5724;42.684;23.252;2024-02-23T04:01:47;10.67;;;9.73;;
11338;SDS011;5724;42.684;23.252;2024-02-23T04:04:13;9.73;;;8.93;;
11338;SDS011;5724;42.684;23.252;2024-02-23T04:06:38;10.37;;;9.37;;
11338;SDS011;5724;42.684;23.252;2024-02-23T04:09:04;10.97;;;9.93;;
11338;SDS011;5724;42.684;23.252;2024-02-23T04:11:30;10.43;;;9.43;;
11338;SDS011;5724;42.684;23.252;2024-02-23T04:13:56;10.67;;;9.77;;
11338;SDS011;5724;42.684;23.252;2024-02-23T04:16:22;18.30;;;9.73;;
11338;SDS011;5724;42.684;23.252;2024-02-23T04:18:50;11.00;;;9.87;;
11338;SDS011;5724;42.684;23.252;2024-02-23T04:21:15;10.70;;;9.90;;
11338;SDS011;5724;42.684;23.252;2024-02-23T04:23:41;12.07;;;11.00;;
11338;SDS011;5724;42.684;23.252;2024-02-23T04:26:08;11.30;;;10.30;;
11338;SDS011;5724;42.684;23.252;2024-02-23T04:28:34;10.33;;;9.50;;
11338;SDS011;5724;42.684;23.252;2024-02-23T04:31:02;10.80;;;9.90;;
11338;SDS011;5724;42.684;23.252;2024-02-23T04:33:28;11.63;;;10.73;;
11338;SDS011;5724;42.684;23.252;2024-02-23T04:35:53;11.40;;;10.37;;
11338;SDS011;5724;42.684;23.252;2024-02-23T04:38:19;10.87;;;9.97;;
11338;SDS011;5724;42.684;23.252;2024-02-23T04:40:45;11.33;;;10.33;;
11338;SDS011;5724;42.684;23.252;2024-02-23T04:43:11;11.33;;;10.33;;
11338;SDS011;5724;42.684;23.252;2024-02-23T04:45:36;12.03;;;11.03;;
11338;SDS011;5724;42.684;23.252;2024-02-23T04:48:02;11.70;;;10.67;;
11338;SDS011;5724;42.684;23.252;2024-02-23T04:50:29;12.17;;;11.03;;
11338;SDS011;5724;42.684;23.252;2024-02-23T04:52:54;11.30;;;10.30;;
11338;SDS011;5724;42.684;23.252;2024-02-23T04:55:20;11.83;;;10.53;;
11338;SDS011;5724;42.684;23.252;2024-02-23T04:57:45;11.30;;;10.37;;
11338;SDS011;5724;42.684;23.252;2024-02-23T05:00:11;10.53;;;9.73;;
11338;SDS011;5724;42.684;23.252;2024-02-23T05:02:36;11.37;;;10.37;;
11338;SDS011;5724;42.684;23.252;2024-02-23T05:05:02;11.60;;;10.57;;
11338;SDS011;5724;42.684;23.252;2024-02-23T05:07:32;11.37;;;10.27;;
11338;SDS011;5724;42.684;23.252;2024-02-23T05:09:59;12.60;;;10.50;;
11338;SDS011;5724;42.684;23.252;2024-02-23T05:12:25;15.40;;;13.07;;
11338;SDS011;5724;42.684;23.252;2024-02-23T05:14:51;12.90;;;11.60;;
11338;SDS011;5724;42.684;23.252;2024-02-23T05:17:17;11.20;;;10.20;;
11338;SDS011;5724;42.684;23.252;2024-02-23T05:19:42;11.03;;;10.13;;
11338;SDS011;5724;42.684;23.252;2024-02-23T05:22:08;11.33;;;10.33;;
11338;SDS011;5724;42.684;23.252;2024-02-23T05:24:34;11.93;;;10.73;;
11338;SDS011;5724;42.684;23.252;2024-02-23T05:26:59;15.43;;;13.83;;
11338;SDS011;5724;42.684;23.252;2024-02-23T05:29:27;13.77;;;12.33;;
11338;SDS011;5724;42.684;23.252;2024-02-23T05:31:53;13.37;;;12.07;;
11338;SDS011;5724;42.684;23.252;2024-02-23T05:34:18;15.13;;;12.80;;
11338;SDS011;5724;42.684;23.252;2024-02-23T05:36:44;14.30;;;12.77;;
11338;SDS011;5724;42.684;23.252;2024-02-23T05:39:14;12.53;;;10.97;;
11338;SDS011;5724;42.684;23.252;2024-02-23T05:41:43;13.10;;;11.20;;
11338;SDS011;5724;42.684;23.252;2024-02-23T05:44:11;11.90;;;10.80;;
11338;SDS011;5724;42.684;23.252;2024-02-23T05:46:38;11.63;;;10.60;;
11338;SDS011;5724;42.684;23.252;2024-02-23T05:49:03;12.63;;;10.43;;
11338;SDS011;5724;42.684;23.252;2024-02-23T05:51:29;12.10;;;10.63;;
11338;SDS011;5724;42.684;23.252;2024-02-23T05:53:56;11.77;;;10.57;;
11338;SDS011;5724;42.684;23.252;2024-02-23T05:56:22;16.80;;;15.07;;
11338;SDS011;5724;42.684;23.252;2024-02-23T05:58:49;18.53;;;15.83;;
11338;SDS011;5724;42.684;23.252;2024-02-23T06:01:15;15.17;;;11.73;;
11338;SDS011;5724;42.684;23.252;2024-02-23T06:03:41;12.70;;;11.13;;
11338;SDS011;5724;42.684;23.252;2024-02-23T06:06:07;11.70;;;10.70;;
11338;SDS011;5724;42.684;23.252;2024-02-23T06:08:35;12.30;;;11.20;;
11338;SDS011;5724;42.684;23.252;2024-02-23T06:11:01;12.07;;;10.90;;
11338;SDS011;5724;42.684;23.252;2024-02-23T06:13:29;19.30;;;17.30;;
11338;SDS011;5724;42.684;23.252;2024-02-23T06:15:57;14.07;;;11.53;;
11338;SDS011;5724;42.684;23.252;2024-02-23T06:18:23;12.77;;;11.47;;
11338;SDS011;5724;42.684;23.252;2024-02-23T06:20:49;13.17;;;11.80;;
11338;SDS011;5724;42.684;23.252;2024-02-23T06:23:15;12.90;;;11.67;;
11338;SDS011;5724;42.684;23.252;2024-02-23T06:25:41;18.83;;;16.20;;
11338;SDS011;5724;42.684;23.252;2024-02-23T06:28:07;12.63;;;11.47;;
11338;SDS011;5724;42.684;23.252;2024-02-23T06:30:32;27.03;;;16.77;;
11338;SDS011;5724;42.684;23.252;2024-02-23T06:32:58;38.17;;;28.33;;
11338;SDS011;5724;42.684;23.252;2024-02-23T06:35:23;13.83;;;12.50;;
11338;SDS011;5724;42.684;23.252;2024-02-23T06:37:49;15.60;;;12.17;;
11338;SDS011;5724;42.684;23.252;2024-02-23T06:40:14;13.80;;;12.40;;
11338;SDS011;5724;42.684;23.252;2024-02-23T06:42:40;12.77;;;11.53;;
11338;SDS011;5724;42.684;23.252;2024-02-23T06:45:06;12.70;;;11.45;;
11338;SDS011;5724;42.684;23.252;2024-02-23T06:47:32;11.90;;;10.83;;
11338;SDS011;5724;42.684;23.252;2024-02-23T06:49:59;12.20;;;11.00;;
11338;SDS011;5724;42.684;23.252;2024-02-23T06:52:26;11.40;;;10.43;;
11338;SDS011;5724;42.684;23.252;2024-02-23T06:54:51;11.85;;;10.85;;
11338;SDS011;5724;42.684;23.252;2024-02-23T06:57:17;14.25;;;11.40;;
11338;SDS011;5724;42.684;23.252;2024-02-23T06:59:43;13.70;;;11.55;;
11338;SDS011;5724;42.684;23.252;2024-02-23T07:02:12;11.25;;;10.30;;
11338;SDS011;5724;42.684;23.252;2024-02-23T07:04:37;12.10;;;11.00;;
11338;SDS011;5724;42.684;23.252;2024-02-23T07:07:03;11.57;;;10.50;;
11338;SDS011;5724;42.684;23.252;2024-02-23T07:09:32;12.98;;;11.55;;
11338;SDS011;5724;42.684;23.252;2024-02-23T07:11:59;14.10;;;11.32;;
11338;SDS011;5724;42.684;23.252;2024-02-23T07:14:25;13.57;;;10.88;;
11338;SDS011;5724;42.684;23.252;2024-02-23T07:16:50;13.07;;;10.90;;
11338;SDS011;5724;42.684;23.252;2024-02-23T07:19:19;13.20;;;11.05;;
11338;SDS011;5724;42.684;23.252;2024-02-23T07:21:46;13.15;;;11.85;;
11338;SDS011;5724;42.684;23.252;2024-02-23T07:24:13;12.75;;;11.40;;
11338;SDS011;5724;42.684;23.252;2024-02-23T07:26:39;15.00;;;11.40;;
11338;SDS011;5724;42.684;23.252;2024-02-23T07:29:05;14.05;;;12.00;;
11338;SDS011;5724;42.684;23.252;2024-02-23T07:31:31;12.48;;;11.27;;
11338;SDS011;5724;42.684;23.252;2024-02-23T07:33:57;12.02;;;10.80;;
11338;SDS011;5724;42.684;23.252;2024-02-23T07:36:22;12.75;;;11.55;;
11338;SDS011;5724;42.684;23.252;2024-02-23T07:38:48;11.82;;;10.73;;
11338;SDS011;5724;42.684;23.252;2024-02-23T07:41:14;12.20;;;10.98;;
11338;SDS011;5724;42.684;23.252;2024-02-23T07:43:40;16.27;;;12.20;;
11338;SDS011;5724;42.684;23.252;2024-02-23T07:46:05;12.38;;;11.13;;
11338;SDS011;5724;42.684;23.252;2024-02-23T07:48:34;13.65;;;11.40;;
11338;SDS011;5724;42.684;23.252;2024-02-23T07:51:01;14.02;;;11.23;;
11338;SDS011;5724;42.684;23.252;2024-02-23T07:53:27;12.70;;;11.35;;
11338;SDS011;5724;42.684;23.252;2024-02-23T07:55:53;13.05;;;11.80;;
11338;SDS011;5724;42.684;23.252;2024-02-23T07:58:18;12.95;;;11.88;;
11338;SDS011;5724;42.684;23.252;2024-02-23T08:00:44;14.25;;;12.80;;
11338;SDS011;5724;42.684;23.252;2024-02-23T08:03:09;15.80;;;13.05;;
11338;SDS011;5724;42.684;23.252;2024-02-23T08:05:36;13.70;;;12.48;;
11338;SDS011;5724;42.684;23.252;2024-02-23T08:08:01;14.85;;;13.13;;
11338;SDS011;5724;42.684;23.252;2024-02-23T08:10:27;13.80;;;12.48;;
11338;SDS011;5724;42.684;23.252;2024-02-23T08:12:53;18.80;;;14.20;;
11338;SDS011;5724;42.684;23.252;2024-02-23T08:15:19;16.05;;;13.18;;
11338;SDS011;5724;42.684;23.252;2024-02-23T08:17:44;20.52;;;14.35;;
11338;SDS011;5724;42.684;23.252;2024-02-23T08:20:10;23.33;;;15.68;;
11338;SDS011;5724;42.684;23.252;2024-02-23T08:22:35;17.98;;;16.15;;
11338;SDS011;5724;42.684;23.252;2024-02-23T08:25:01;20.13;;;15.85;;
11338;SDS011;5724;42.684;23.252;2024-02-23T08:27:27;19.80;;;14.73;;
11338;SDS011;5724;42.684;23.252;2024-02-23T08:29:52;16.10;;;14.40;;
11338;SDS011;5724;42.684;23.252;2024-02-23T08:32:18;20.42;;;15.35;;
11338;SDS011;5724;42.684;23.252;2024-02-23T08:34:44;21.70;;;15.38;;
11338;SDS011;5724;42.684;23.252;2024-02-23T08:37:09;25.85;;;15.10;;
11338;SDS011;5724;42.684;23.252;2024-02-23T08:39:35;13.15;;;11.18;;
11338;SDS011;5724;42.684;23.252;2024-02-23T08:42:02;10.45;;;9.52;;
11338;SDS011;5724;42.684;23.252;2024-02-23T08:44:28;8.38;;;7.60;;
11338;SDS011;5724;42.684;23.252;2024-02-23T08:46:56;9.43;;;8.50;;
11338;SDS011;5724;42.684;23.252;2024-02-23T08:49:21;10.07;;;9.10;;
11338;SDS011;5724;42.684;23.252;2024-02-23T08:51:47;11.77;;;10.63;;
11338;SDS011;5724;42.684;23.252;2024-02-23T08:54:12;10.93;;;9.93;;
11338;SDS011;5724;42.684;23.252;2024-02-23T08:56:38;12.45;;;9.05;;
11338;SDS011;5724;42.684;23.252;2024-02-23T08:59:05;11.95;;;10.23;;
11338;SDS011;5724;42.684;23.252;2024-02-23T09:01:30;10.68;;;8.52;;
11338;SDS011;5724;42.684;23.252;2024-02-23T09:03:55;8.80;;;8.10;;
11338;SDS011;5724;42.684;23.252;2024-02-23T09:06:21;9.18;;;8.50;;
11338;SDS011;5724;42.684;23.252;2024-02-23T09:08:46;7.45;;;6.95;;
11338;SDS011;5724;42.684;23.252;2024-02-23T09:11:12;6.85;;;6.22;;
11338;SDS011;5724;42.684;23.252;2024-02-23T09:13:39;6.07;;;5.72;;
11338;SDS011;5724;42.684;23.252;2024-02-23T09:16:04;7.18;;;6.45;;
11338;SDS011;5724;42.684;23.252;2024-02-23T09:18:30;6.40;;;5.78;;
11338;SDS011;5724;42.684;23.252;2024-02-23T09:20:55;7.43;;;6.80;;
11338;SDS011;5724;42.684;23.252;2024-02-23T09:23:21;9.48;;;8.48;;
11338;SDS011;5724;42.684;23.252;2024-02-23T09:25:46;6.55;;;5.95;;
11338;SDS011;5724;42.684;23.252;2024-02-23T09:28:12;5.80;;;5.28;;
11338;SDS011;5724;42.684;23.252;2024-02-23T09:30:38;6.03;;;5.53;;
11338;SDS011;5724;42.684;23.252;2024-02-23T09:33:03;6.57;;;6.07;;
11338;SDS011;5724;42.684;23.252;2024-02-23T09:35:29;6.13;;;5.70;;
11338;SDS011;5724;42.684;23.252;2024-02-23T09:37:55;4.88;;;4.57;;
11338;SDS011;5724;42.684;23.252;2024-02-23T09:40:21;6.93;;;6.47;;
11338;SDS011;5724;42.684;23.252;2024-02-23T09:42:52;9.52;;;8.60;;
11338;SDS011;5724;42.684;23.252;2024-02-23T09:45:21;9.07;;;6.57;;
11338;SDS011;5724;42.684;23.252;2024-02-23T09:47:48;4.72;;;4.18;;
11338;SDS011;5724;42.684;23.252;2024-02-23T09:50:14;5.20;;;4.65;;
11338;SDS011;5724;42.684;23.252;2024-02-23T09:52:42;4.50;;;4.10;;
11338;SDS011;5724;42.684;23.252;2024-02-23T09:55:08;4.40;;;4.03;;
11338;SDS011;5724;42.684;23.252;2024-02-23T09:57:35;4.10;;;3.78;;
11338;SDS011;5724;42.684;23.252;2024-02-23T10:00:02;3.28;;;3.17;;
11338;SDS011;5724;42.684;23.252;2024-02-23T10:02:31;3.25;;;3.15;;
11338;SDS011;5724;42.684;23.252;2024-02-23T10:04:58;7.20;;;3.75;;
11338;SDS011;5724;42.684;23.252;2024-02-23T10:07:26;2.90;;;2.75;;
11338;SDS011;5724;42.684;23.252;2024-02-23T10:09:52;3.38;;;2.67;;
11338;SDS011;5724;42.684;23.252;2024-02-23T10:12:18;3.55;;;2.80;;
11338;SDS011;5724;42.684;23.252;2024-02-23T10:14:44;2.75;;;2.58;;
11338;SDS011;5724;42.684;23.252;2024-02-23T10:17:10;4.00;;;3.00;;
11338;SDS011;5724;42.684;23.252;2024-02-23T10:19:35;3.65;;;3.35;;
11338;SDS011;5724;42.684;23.252;2024-02-23T10:22:02;3.08;;;2.90;;
11338;SDS011;5724;42.684;23.252;2024-02-23T10:24:29;2.97;;;2.30;;
11338;SDS011;5724;42.684;23.252;2024-02-23T10:26:55;2.50;;;2.40;;
11338;SDS011;5724;42.684;23.252;2024-02-23T10:29:23;4.40;;;2.50;;
11338;SDS011;5724;42.684;23.252;2024-02-23T10:31:48;2.50;;;2.40;;
11338;SDS011;5724;42.684;23.252;2024-02-23T10:34:17;5.55;;;2.40;;
11338;SDS011;5724;42.684;23.252;2024-02-23T10:36:44;2.53;;;2.42;;
11338;SDS011;5724;42.684;23.252;2024-02-23T10:39:17;2.60;;;2.40;;
11338;SDS011;5724;42.684;23.252;2024-02-23T10:41:47;2.60;;;2.40;;
11338;SDS011;5724;42.684;23.252;2024-02-23T10:44:26;2.15;;;2.05;;
11338;SDS011;5724;42.684;23.252;2024-02-23T10:46:53;2.45;;;2.25;;
11338;SDS011;5724;42.684;23.252;2024-02-23T10:49:20;2.47;;;2.28;;
11338;SDS011;5724;42.684;23.252;2024-02-23T10:51:51;2.50;;;2.30;;
11338;SDS011;5724;42.684;23.252;2024-02-23T10:54:17;3.90;;;2.30;;
11338;SDS011;5724;42.684;23.252;2024-02-23T10:56:54;2.35;;;2.15;;
11338;SDS011;5724;42.684;23.252;2024-02-23T10:59:20;2.53;;;2.38;;
11338;SDS011;5724;42.684;23.252;2024-02-23T11:01:51;3.05;;;2.67;;
11338;SDS011;5724;42.684;23.252;2024-02-23T11:04:19;2.65;;;2.45;;
11338;SDS011;5724;42.684;23.252;2024-02-23T11:06:52;2.28;;;2.17;;
11338;SDS011;5724;42.684;23.252;2024-02-23T11:09:23;7.75;;;2.17;;
11338;SDS011;5724;42.684;23.252;2024-02-23T11:11:58;3.15;;;1.95;;
11338;SDS011;5724;42.684;23.252;2024-02-23T11:14:37;2.05;;;1.95;;
11338;SDS011;5724;42.684;23.252;2024-02-23T11:17:03;2.85;;;1.90;;
11338;SDS011;5724;42.684;23.252;2024-02-23T11:19:35;2.40;;;2.30;;
11338;SDS011;5724;42.684;23.252;2024-02-23T11:22:02;4.13;;;1.80;;
11338;SDS011;5724;42.684;23.252;2024-02-23T11:24:29;4.28;;;2.35;;
11338;SDS011;5724;42.684;23.252;2024-02-23T11:26:59;1.98;;;1.80;;
11338;SDS011;5724;42.684;23.252;2024-02-23T11:29:33;1.85;;;1.75;;
11338;SDS011;5724;42.684;23.252;2024-02-23T11:31:59;3.03;;;1.80;;
11338;SDS011;5724;42.684;23.252;2024-02-23T11:34:29;2.78;;;1.75;;
11338;SDS011;5724;42.684;23.252;2024-02-23T11:36:56;1.85;;;1.75;;
11338;SDS011;5724;42.684;23.252;2024-02-23T11:39:23;4.47;;;1.80;;
11338;SDS011;5724;42.684;23.252;2024-02-23T11:41:50;6.15;;;2.15;;
11338;SDS011;5724;42.684;23.252;2024-02-23T11:44:16;4.38;;;2.30;;
11338;SDS011;5724;42.684;23.252;2024-02-23T11:46:44;1.98;;;1.88;;
11338;SDS011;5724;42.684;23.252;2024-02-23T11:49:11;1.80;;;1.70;;
11338;SDS011;5724;42.684;23.252;2024-02-23T11:51:37;1.55;;;1.35;;
11338;SDS011;5724;42.684;23.252;2024-02-23T11:54:03;4.93;;;2.25;;
11338;SDS011;5724;42.684;23.252;2024-02-23T11:56:29;2.13;;;2.03;;
11338;SDS011;5724;42.684;23.252;2024-02-23T11:58:56;2.95;;;1.80;;
11338;SDS011;5724;42.684;23.252;2024-02-23T12:01:23;5.10;;;2.20;;
11338;SDS011;5724;42.684;23.252;2024-02-23T12:03:48;2.05;;;1.95;;
11338;SDS011;5724;42.684;23.252;2024-02-23T12:06:14;2.42;;;2.25;;
11338;SDS011;5724;42.684;23.252;2024-02-23T12:08:43;2.28;;;2.17;;
11338;SDS011;5724;42.684;23.252;2024-02-23T12:11:11;2.30;;;1.73;;
11338;SDS011;5724;42.684;23.252;2024-02-23T12:13:37;1.90;;;1.80;;
11338;SDS011;5724;42.684;23.252;2024-02-23T12:16:03;3.00;;;1.88;;
11338;SDS011;5724;42.684;23.252;2024-02-23T12:18:29;2.05;;;1.60;;
11338;SDS011;5724;42.684;23.252;2024-02-23T12:20:59;1.85;;;1.85;;
11338;SDS011;5724;42.684;23.252;2024-02-23T12:23:43;2.05;;;1.67;;
11338;SDS011;5724;42.684;23.252;2024-02-23T12:26:13;1.83;;;1.80;;
11338;SDS011;5724;42.684;23.252;2024-02-23T12:28:43;1.95;;;1.85;;
11338;SDS011;5724;42.684;23.252;2024-02-23T12:31:09;1.92;;;1.75;;
11338;SDS011;5724;42.684;23.252;2024-02-23T12:33:36;1.67;;;1.65;;
11338;SDS011;5724;42.684;23.252;2024-02-23T12:36:03;3.03;;;1.80;;
11338;SDS011;5724;42.684;23.252;2024-02-23T12:38:30;1.70;;;1.60;;
11338;SDS011;5724;42.684;23.252;2024-02-23T12:40:56;1.77;;;1.67;;
11338;SDS011;5724;42.684;23.252;2024-02-23T12:43:22;1.88;;;1.77;;
11338;SDS011;5724;42.684;23.252;2024-02-23T12:45:56;1.70;;;1.60;;
11338;SDS011;5724;42.684;23.252;2024-02-23T12:48:22;1.92;;;1.70;;
11338;SDS011;5724;42.684;23.252;2024-02-23T12:50:49;1.73;;;1.42;;
11338;SDS011;5724;42.684;23.252;2024-02-23T12:53:32;1.42;;;1.42;;
11338;SDS011;5724;42.684;23.252;2024-02-23T12:56:03;1.55;;;1.48;;
11338;SDS011;5724;42.684;23.252;2024-02-23T12:58:40;2.05;;;1.90;;
11338;SDS011;5724;42.684;23.252;2024-02-23T13:01:07;2.17;;;1.90;;
11338;SDS011;5724;42.684;23.252;2024-02-23T13:03:36;1.67;;;1.60;;
11338;SDS011;5724;42.684;23.252;2024-02-23T13:06:04;2.10;;;1.60;;
11338;SDS011;5724;42.684;23.252;2024-02-23T13:08:30;3.15;;;1.45;;
11338;SDS011;5724;42.684;23.252;2024-02-23T13:10:57;1.65;;;1.55;;
11338;SDS011;5724;42.684;23.252;2024-02-23T13:13:22;2.47;;;1.50;;
11338;SDS011;5724;42.684;23.252;2024-02-23T13:15:49;2.47;;;1.42;;
11338;SDS011;5724;42.684;23.252;2024-02-23T13:18:15;1.80;;;1.70;;
11338;SDS011;5724;42.684;23.252;2024-02-23T13:20:41;7.50;;;2.03;;
11338;SDS011;5724;42.684;23.252;2024-02-23T13:23:07;7.85;;;2.03;;
11338;SDS011;5724;42.684;23.252;2024-02-23T13:25:39;3.35;;;1.80;;
11338;SDS011;5724;42.684;23.252;2024-02-23T13:28:05;5.82;;;2.00;;
11338;SDS011;5724;42.684;23.252;2024-02-23T13:30:32;4.57;;;1.80;;
11338;SDS011;5724;42.684;23.252;2024-02-23T13:32:58;1.88;;;1.77;;
11338;SDS011;5724;42.684;23.252;2024-02-23T13:35:25;2.22;;;1.92;;
11338;SDS011;5724;42.684;23.252;2024-02-23T13:37:51;1.90;;;1.80;;
11338;SDS011;5724;42.684;23.252;2024-02-23T13:40:16;4.45;;;2.17;;
11338;SDS011;5724;42.684;23.252;2024-02-23T13:42:43;4.35;;;2.55;;
11338;SDS011;5724;42.684;23.252;2024-02-23T13:45:15;2.00;;;1.90;;
11338;SDS011;5724;42.684;23.252;2024-02-23T13:47:41;2.50;;;2.30;;
11338;SDS011;5724;42.684;23.252;2024-02-23T13:50:09;3.25;;;1.80;;
11338;SDS011;5724;42.684;23.252;2024-02-23T13:52:37;1.88;;;1.77;;
11338;SDS011;5724;42.684;23.252;2024-02-23T13:55:02;1.80;;;1.80;;
11338;SDS011;5724;42.684;23.252;2024-02-23T13:57:28;2.80;;;1.80;;
11338;SDS011;5724;42.684;23.252;2024-02-23T13:59:54;2.13;;;2.03;;
11338;SDS011;5724;42.684;23.252;2024-02-23T14:02:24;2.72;;;2.00;;
11338;SDS011;5724;42.684;23.252;2024-02-23T14:04:52;1.83;;;1.73;;
11338;SDS011;5724;42.684;23.252;2024-02-23T14:07:17;2.78;;;1.90;;
11338;SDS011;5724;42.684;23.252;2024-02-23T14:09:43;2.78;;;1.98;;
11338;SDS011;5724;42.684;23.252;2024-02-23T14:12:08;2.35;;;1.77;;
11338;SDS011;5724;42.684;23.252;2024-02-23T14:14:34;1.95;;;1.70;;
11338;SDS011;5724;42.684;23.252;2024-02-23T14:16:59;9.98;;;2.58;;
11338;SDS011;5724;42.684;23.252;2024-02-23T14:19:25;3.00;;;1.70;;
11338;SDS011;5724;42.684;23.252;2024-02-23T14:21:51;2.30;;;2.10;;
11338;SDS011;5724;42.684;23.252;2024-02-23T14:24:17;2.03;;;1.73;;
11338;SDS011;5724;42.684;23.252;2024-02-23T14:26:43;1.90;;;1.80;;
11338;SDS011;5724;42.684;23.252;2024-02-23T14:29:08;2.17;;;1.98;;
11338;SDS011;5724;42.684;23.252;2024-02-23T14:31:34;2.10;;;2.00;;
11338;SDS011;5724;42.684;23.252;2024-02-23T14:34:00;2.03;;;1.92;;